createdAt,value
2022-09-04T00:03:14.297Z,3.85
2022-09-04T00:07:39.695Z,3.08
2022-09-04T00:12:08.975Z,3.25
2022-09-04T00:16:20.585Z,3.20
2022-09-04T00:20:39.100Z,3.05
2022-09-04T00:24:49.345Z,3.25
2022-09-04T00:28:58.764Z,3.10
2022-09-04T00:33:16.016Z,2.95
2022-09-04T00:37:23.494Z,3.28
2022-09-04T00:41:32.946Z,2.95
2022-09-04T00:46:05.498Z,3.22
2022-09-04T00:50:09.639Z,3.10
2022-09-04T00:54:33.916Z,3.75
2022-09-04T00:58:48.679Z,3.45
2022-09-04T01:03:32.708Z,3.85
2022-09-04T01:07:47.076Z,3.43
2022-09-04T01:11:55.178Z,3.50
2022-09-04T01:16:09.320Z,3.53
2022-09-04T01:20:24.920Z,3.53
2022-09-04T01:24:47.148Z,3.53
2022-09-04T01:29:10.417Z,3.88
2022-09-04T01:33:21.516Z,4.22
2022-09-04T01:37:51.090Z,3.90
2022-09-04T01:41:59.804Z,3.60
2022-09-04T01:46:15.978Z,4.22
2022-09-04T01:50:25.842Z,4.15
2022-09-04T01:54:42.550Z,3.70
2022-09-04T01:58:51.859Z,3.70
2022-09-04T02:02:56.719Z,4.00
2022-09-04T02:07:05.303Z,4.32
2022-09-04T02:11:27.806Z,3.75
2022-09-04T02:16:14.539Z,4.57
2022-09-04T02:20:21.920Z,4.00
2022-09-04T02:24:30.163Z,4.22
2022-09-04T02:28:53.531Z,4.03
2022-09-04T02:33:06.593Z,5.03
2022-09-04T02:37:27.671Z,4.25
2022-09-04T02:42:03.977Z,4.55
2022-09-04T02:46:24.997Z,4.10
2022-09-04T02:50:49.923Z,4.20
2022-09-04T02:55:44.636Z,4.53
2022-09-04T03:00:21.137Z,3.60
2022-09-04T03:04:50.170Z,3.90
2022-09-04T03:09:07.680Z,4.03
2022-09-04T03:13:21.848Z,4.05
2022-09-04T03:17:30.116Z,3.88
2022-09-04T03:21:53.401Z,4.15
2022-09-04T03:26:19.553Z,4.20
2022-09-04T03:30:21.870Z,4.25
2022-09-04T03:34:28.829Z,4.03
2022-09-04T03:38:40.221Z,4.53
2022-09-04T03:42:50.564Z,3.55
2022-09-04T03:47:11.197Z,3.80
2022-09-04T03:51:31.751Z,4.18
2022-09-04T03:56:07.716Z,4.88
2022-09-04T04:00:11.177Z,4.35
2022-09-04T04:04:35.402Z,4.78
2022-09-04T04:08:56.801Z,4.97
2022-09-04T04:13:14.314Z,4.93
2022-09-04T04:17:38.925Z,4.60
2022-09-04T04:22:08.004Z,3.95
2022-09-04T04:26:16.577Z,5.07
2022-09-04T04:30:19.911Z,4.32
2022-09-04T04:34:47.366Z,4.07
2022-09-04T04:39:13.670Z,3.85
2022-09-04T04:43:24.863Z,4.05
2022-09-04T04:47:54.989Z,4.95
2022-09-04T04:52:11.332Z,4.55
2022-09-04T04:56:29.809Z,4.45
2022-09-04T05:00:40.948Z,4.72
2022-09-04T05:05:14.017Z,4.72
2022-09-04T05:09:37.326Z,4.97
2022-09-04T05:13:53.600Z,4.57
2022-09-04T05:18:06.676Z,4.78
2022-09-04T05:22:40.864Z,4.60
2022-09-04T05:26:59.678Z,4.70
2022-09-04T05:31:20.330Z,4.65
2022-09-04T05:35:35.466Z,4.15
2022-09-04T05:40:03.271Z,4.32
2022-09-04T05:44:20.990Z,4.70
2022-09-04T05:48:28.082Z,4.25
2022-09-04T05:52:45.164Z,4.35
2022-09-04T05:57:12.936Z,5.00
2022-09-04T06:01:27.407Z,5.18
2022-09-04T06:09:58.480Z,3.78
2022-09-04T06:14:13.642Z,4.30
2022-09-04T06:18:26.495Z,3.60
2022-09-04T06:22:38.325Z,3.05
2022-09-04T06:27:04.706Z,2.92
2022-09-04T06:31:12.820Z,2.65
2022-09-04T06:35:34.367Z,2.83
2022-09-04T06:40:00.972Z,2.60
2022-09-04T06:44:12.325Z,2.33
2022-09-04T06:48:34.774Z,2.85
2022-09-04T06:53:07.442Z,2.40
2022-09-04T06:57:18.561Z,2.20
2022-09-04T07:01:41.850Z,2.10
2022-09-04T07:06:01.037Z,2.47
2022-09-04T07:10:11.110Z,2.45
2022-09-04T07:14:34.572Z,2.20
2022-09-04T07:18:54.462Z,2.60
2022-09-04T07:23:08.710Z,2.38
2022-09-04T07:31:44.423Z,2.78
2022-09-04T07:36:14.033Z,2.65
2022-09-04T07:40:21.189Z,2.90
2022-09-04T07:44:49.130Z,2.85
2022-09-04T07:49:04.351Z,2.65
2022-09-04T07:53:22.564Z,2.90
2022-09-04T07:57:43.549Z,2.78
2022-09-04T08:02:13.480Z,2.50
2022-09-04T08:06:35.628Z,2.40
2022-09-04T08:10:51.449Z,2.20
2022-09-04T08:14:56.487Z,2.33
2022-09-04T08:19:18.731Z,1.67
2022-09-04T08:23:29.901Z,2.10
2022-09-04T08:28:00.991Z,1.98
2022-09-04T08:32:21.891Z,1.88
2022-09-04T08:36:49.769Z,2.20
2022-09-04T08:41:26.168Z,1.80
2022-09-04T08:45:53.393Z,2.10
2022-09-04T08:50:13.905Z,1.55
2022-09-04T08:54:45.251Z,1.77
2022-09-04T08:58:56.406Z,1.70
2022-09-04T09:03:49.072Z,1.73
2022-09-04T09:08:13.408Z,2.10
2022-09-04T09:12:40.783Z,1.65
2022-09-04T09:17:03.128Z,1.70
2022-09-04T09:21:34.782Z,2.10
2022-09-04T09:26:06.496Z,1.73
2022-09-04T09:30:19.635Z,1.63
2022-09-04T09:34:50.041Z,1.50
2022-09-04T09:39:23.649Z,1.55
2022-09-04T09:44:05.175Z,1.58
2022-09-04T09:48:49.514Z,1.42
2022-09-04T10:01:42.583Z,1.30
2022-09-04T10:06:03.481Z,1.80
2022-09-04T10:10:36.515Z,1.48
2022-09-04T10:15:06.769Z,1.40
2022-09-04T10:19:12.654Z,1.40
2022-09-04T10:23:17.893Z,1.42
2022-09-04T10:27:29.330Z,1.40
2022-09-04T10:31:43.628Z,1.33
2022-09-04T10:35:54.326Z,1.27
2022-09-04T10:40:43.359Z,0.93
2022-09-04T10:45:02.750Z,1.67
2022-09-04T10:49:30.633Z,1.40
2022-09-04T10:53:35.596Z,1.30
2022-09-04T10:58:05.355Z,1.25
2022-09-04T11:02:35.664Z,1.80
2022-09-04T11:07:10.231Z,1.30
2022-09-04T11:11:35.200Z,1.63
2022-09-04T11:15:52.205Z,1.40
2022-09-04T11:20:18.255Z,1.63
2022-09-04T11:24:33.574Z,1.58
2022-09-04T11:28:57.150Z,1.88
2022-09-04T11:33:37.620Z,1.60
2022-09-04T11:37:59.848Z,1.48
2022-09-04T11:42:25.182Z,1.30
2022-09-04T11:46:33.813Z,1.50
2022-09-04T11:50:47.320Z,1.00
2022-09-04T11:59:30.495Z,1.30
2022-09-04T12:04:00.313Z,1.40
2022-09-04T12:08:23.419Z,1.58
2022-09-04T12:12:51.585Z,2.42
2022-09-04T12:17:25.988Z,1.42
2022-09-04T12:21:51.835Z,1.38
2022-09-04T12:26:03.764Z,1.58
2022-09-04T12:30:26.100Z,1.38
2022-09-04T12:34:43.915Z,1.70
2022-09-04T12:39:24.474Z,1.40
2022-09-04T12:43:43.322Z,1.80
2022-09-04T12:48:00.830Z,1.42
2022-09-04T12:52:20.000Z,1.35
2022-09-04T12:56:44.907Z,1.33
2022-09-04T13:01:10.644Z,1.60
2022-09-04T13:10:49.205Z,1.80
2022-09-04T13:15:38.643Z,1.35
2022-09-04T13:20:16.658Z,1.10
2022-09-04T13:30:08.011Z,1.38
2022-09-04T13:35:02.102Z,1.40
2022-09-04T13:52:00.572Z,1.55
2022-09-04T13:56:16.162Z,1.85
2022-09-04T14:00:19.659Z,1.30
2022-09-04T14:09:45.639Z,1.58
2022-09-04T14:14:04.929Z,1.38
2022-09-04T14:18:47.156Z,2.90
2022-09-04T14:23:06.641Z,1.13
2022-09-04T14:27:23.916Z,1.70
2022-09-04T14:31:35.400Z,1.10
2022-09-04T14:35:50.981Z,1.77
2022-09-04T14:40:03.236Z,1.55
2022-09-04T14:44:49.759Z,1.77
2022-09-04T14:49:01.741Z,1.23
2022-09-04T14:53:09.326Z,1.50
2022-09-04T14:57:50.466Z,1.48
2022-09-04T15:02:19.131Z,1.38
2022-09-04T15:06:32.433Z,1.38
2022-09-04T15:10:53.966Z,1.40
2022-09-04T15:15:15.111Z,2.30
2022-09-04T15:19:51.668Z,1.33
2022-09-04T15:24:35.142Z,1.25
2022-09-04T15:28:48.357Z,1.45
2022-09-04T15:33:42.318Z,1.40
2022-09-04T15:37:48.576Z,1.40
2022-09-04T15:41:57.150Z,1.08
2022-09-04T15:46:29.741Z,1.25
2022-09-04T15:50:50.763Z,1.00
2022-09-04T15:55:19.958Z,1.27
2022-09-04T15:59:30.202Z,1.48
2022-09-04T16:03:47.460Z,1.30
2022-09-04T16:08:03.177Z,1.30
2022-09-04T16:12:20.773Z,1.33
2022-09-04T16:16:45.597Z,1.80
2022-09-04T16:21:00.189Z,1.85
2022-09-04T16:25:08.918Z,2.33
2022-09-04T16:29:26.992Z,2.85
2022-09-04T16:33:44.561Z,1.70
2022-09-04T16:38:19.978Z,2.40
2022-09-04T16:42:50.252Z,2.05
2022-09-04T16:47:10.607Z,1.70
2022-09-04T16:51:55.405Z,2.08
2022-09-04T16:56:16.558Z,2.20
2022-09-04T17:00:22.530Z,1.50
2022-09-04T17:04:27.826Z,1.48
2022-09-04T17:08:38.633Z,1.20
2022-09-04T17:12:40.934Z,1.48
2022-09-04T17:17:04.164Z,1.40
2022-09-04T17:26:44.373Z,2.00
2022-09-04T17:29:07.926Z,2.38
2022-09-04T17:30:46.480Z,1.55
2022-09-04T17:40:44.603Z,2.08
2022-09-04T17:40:50.141Z,1.60
2022-09-04T17:44:11.391Z,1.25
2022-09-04T17:48:39.299Z,1.40
2022-09-04T17:53:00.422Z,1.33
2022-09-04T17:57:26.183Z,1.90
2022-09-04T18:01:43.198Z,1.90
2022-09-04T18:05:53.558Z,1.80
2022-09-04T18:10:09.262Z,1.98
2022-09-04T18:14:31.986Z,1.50
2022-09-04T18:18:45.709Z,1.45
2022-09-04T18:23:06.360Z,1.70
2022-09-04T18:27:19.121Z,1.73
2022-09-04T18:37:08.433Z,1.80
2022-09-04T18:37:17.428Z,1.80
2022-09-04T18:42:21.831Z,1.90
2022-09-04T18:50:50.179Z,2.25
2022-09-04T18:50:50.872Z,1.60
2022-09-04T18:54:23.134Z,1.77
2022-09-04T18:59:00.873Z,2.65
2022-09-04T19:03:45.168Z,2.80
2022-09-04T19:07:59.795Z,2.60
2022-09-04T19:12:09.773Z,2.75
2022-09-04T19:16:18.886Z,2.22
2022-09-04T19:20:25.656Z,1.83
2022-09-04T19:24:39.210Z,2.95
2022-09-04T19:28:53.137Z,2.85
2022-09-04T19:40:51.844Z,2.08
2022-09-04T19:46:08.157Z,2.22
2022-09-04T19:46:44.426Z,2.60
2022-09-04T19:53:30.392Z,2.53
2022-09-04T19:55:23.447Z,2.25
2022-09-04T20:03:45.513Z,2.30
2022-09-04T20:08:14.112Z,2.70
2022-09-04T20:12:28.572Z,3.00
2022-09-04T20:16:48.482Z,2.40
2022-09-04T20:20:59.077Z,3.83
2022-09-04T20:25:07.515Z,2.80
2022-09-04T20:29:15.711Z,2.70
2022-09-04T20:33:22.191Z,2.72
2022-09-04T20:37:41.344Z,2.53
2022-09-04T20:41:54.828Z,2.92
2022-09-04T20:48:45.665Z,2.90
2022-09-04T20:52:53.161Z,2.75
2022-09-04T20:55:36.431Z,2.80
2022-09-04T21:03:23.364Z,3.17
2022-09-04T21:04:43.505Z,3.17
2022-09-04T21:08:55.391Z,3.20
2022-09-04T21:13:13.778Z,3.17
2022-09-04T21:17:45.583Z,3.40
2022-09-04T21:22:39.937Z,3.90
2022-09-04T21:27:03.750Z,3.10
2022-09-04T21:31:33.316Z,3.25
2022-09-04T21:35:52.541Z,3.63
2022-09-04T21:39:58.278Z,3.75
2022-09-04T21:44:24.131Z,3.75
2022-09-04T21:48:55.471Z,3.80
2022-09-04T21:53:43.664Z,4.20
2022-09-04T22:02:28.385Z,3.60
2022-09-04T22:02:57.838Z,3.75
2022-09-04T22:12:05.045Z,3.25
2022-09-04T22:16:28.987Z,3.35
2022-09-04T22:20:51.657Z,4.05
2022-09-04T22:25:33.067Z,3.70
2022-09-04T22:30:01.796Z,4.70
2022-09-04T22:34:15.458Z,4.95
2022-09-04T22:38:31.534Z,4.43
2022-09-04T22:42:55.854Z,4.82
2022-09-04T22:47:26.045Z,4.85
2022-09-04T22:51:56.496Z,4.30
2022-09-04T22:56:22.688Z,4.63
2022-09-04T23:00:23.662Z,4.75
2022-09-04T23:04:46.625Z,4.33
2022-09-04T23:13:49.763Z,4.10
2022-09-04T23:14:07.481Z,4.93
2022-09-04T23:26:35.389Z,4.70
2022-09-04T23:26:46.441Z,4.15
2022-09-04T23:27:35.611Z,4.05
2022-09-04T23:32:13.435Z,4.93
2022-09-04T23:36:53.632Z,4.93
2022-09-04T23:41:23.608Z,5.47
2022-09-04T23:45:34.774Z,5.55
2022-09-04T23:50:02.352Z,5.85
2022-09-04T23:54:25.394Z,5.32
2022-09-04T23:59:24.492Z,5.13
